sensor_id;sensor_type;location;lat;lon;timestamp;P1;durP1;ratioP1;P2;durP2;ratioP2
20283;SDS011;10301;50.832;4.080;2023-11-22T00:00:12;29.20;;;17.43;;
20283;SDS011;10301;50.832;4.080;2023-11-22T00:02:38;32.30;;;17.27;;
20283;SDS011;10301;50.832;4.080;2023-11-22T00:05:05;32.23;;;17.83;;
20283;SDS011;10301;50.832;4.080;2023-11-22T00:07:31;30.13;;;17.37;;
20283;SDS011;10301;50.832;4.080;2023-11-22T00:09:57;28.37;;;16.93;;
20283;SDS011;10301;50.832;4.080;2023-11-22T00:12:23;29.50;;;16.50;;
20283;SDS011;10301;50.832;4.080;2023-11-22T00:14:49;32.10;;;17.03;;
20283;SDS011;10301;50.832;4.080;2023-11-22T00:17:16;30.67;;;17.87;;
20283;SDS011;10301;50.832;4.080;2023-11-22T00:19:44;30.80;;;17.53;;
20283;SDS011;10301;50.832;4.080;2023-11-22T00:22:11;33.27;;;18.17;;
20283;SDS011;10301;50.832;4.080;2023-11-22T00:24:39;32.27;;;17.60;;
20283;SDS011;10301;50.832;4.080;2023-11-22T00:27:06;29.87;;;16.63;;
20283;SDS011;10301;50.832;4.080;2023-11-22T00:29:33;30.43;;;17.03;;
20283;SDS011;10301;50.832;4.080;2023-11-22T00:31:59;31.47;;;17.90;;
20283;SDS011;10301;50.832;4.080;2023-11-22T00:34:25;28.87;;;16.93;;
20283;SDS011;10301;50.832;4.080;2023-11-22T00:36:51;29.13;;;16.40;;
20283;SDS011;10301;50.832;4.080;2023-11-22T00:39:17;31.03;;;17.60;;
20283;SDS011;10301;50.832;4.080;2023-11-22T00:41:43;31.73;;;16.37;;
20283;SDS011;10301;50.832;4.080;2023-11-22T00:44:12;35.30;;;17.60;;
20283;SDS011;10301;50.832;4.080;2023-11-22T00:46:37;31.37;;;17.13;;
20283;SDS011;10301;50.832;4.080;2023-11-22T00:49:03;33.20;;;17.13;;
20283;SDS011;10301;50.832;4.080;2023-11-22T00:51:33;29.17;;;16.80;;
20283;SDS011;10301;50.832;4.080;2023-11-22T00:53:59;27.40;;;15.70;;
20283;SDS011;10301;50.832;4.080;2023-11-22T00:56:25;31.03;;;17.43;;
20283;SDS011;10301;50.832;4.080;2023-11-22T00:58:52;31.90;;;18.53;;
20283;SDS011;10301;50.832;4.080;2023-11-22T01:01:18;30.03;;;16.60;;
20283;SDS011;10301;50.832;4.080;2023-11-22T01:03:44;31.43;;;17.37;;
20283;SDS011;10301;50.832;4.080;2023-11-22T01:06:11;31.37;;;16.80;;
20283;SDS011;10301;50.832;4.080;2023-11-22T01:08:37;32.07;;;17.40;;
20283;SDS011;10301;50.832;4.080;2023-11-22T01:11:03;31.93;;;17.10;;
20283;SDS011;10301;50.832;4.080;2023-11-22T01:13:30;30.13;;;16.37;;
20283;SDS011;10301;50.832;4.080;2023-11-22T01:15:57;29.87;;;16.00;;
20283;SDS011;10301;50.832;4.080;2023-11-22T01:18:23;31.83;;;17.43;;
20283;SDS011;10301;50.832;4.080;2023-11-22T01:20:49;35.63;;;17.30;;
20283;SDS011;10301;50.832;4.080;2023-11-22T01:23:14;31.47;;;16.97;;
20283;SDS011;10301;50.832;4.080;2023-11-22T01:25:40;32.60;;;17.40;;
20283;SDS011;10301;50.832;4.080;2023-11-22T01:28:06;30.90;;;17.43;;
20283;SDS011;10301;50.832;4.080;2023-11-22T01:30:36;29.90;;;16.40;;
20283;SDS011;10301;50.832;4.080;2023-11-22T01:33:03;34.80;;;17.10;;
20283;SDS011;10301;50.832;4.080;2023-11-22T01:35:29;28.77;;;15.60;;
20283;SDS011;10301;50.832;4.080;2023-11-22T01:37:55;27.07;;;15.73;;
20283;SDS011;10301;50.832;4.080;2023-11-22T01:40:21;28.30;;;15.70;;
20283;SDS011;10301;50.832;4.080;2023-11-22T01:42:47;31.77;;;17.17;;
20283;SDS011;10301;50.832;4.080;2023-11-22T01:45:13;26.23;;;14.80;;
20283;SDS011;10301;50.832;4.080;2023-11-22T01:47:39;29.80;;;15.60;;
20283;SDS011;10301;50.832;4.080;2023-11-22T01:50:06;31.20;;;16.43;;
20283;SDS011;10301;50.832;4.080;2023-11-22T01:52:33;24.43;;;14.17;;
20283;SDS011;10301;50.832;4.080;2023-11-22T01:54:59;28.47;;;15.33;;
20283;SDS011;10301;50.832;4.080;2023-11-22T01:57:29;29.03;;;15.23;;
20283;SDS011;10301;50.832;4.080;2023-11-22T01:59:57;28.77;;;14.87;;
20283;SDS011;10301;50.832;4.080;2023-11-22T02:02:23;29.30;;;15.37;;
20283;SDS011;10301;50.832;4.080;2023-11-22T02:04:49;30.13;;;15.50;;
20283;SDS011;10301;50.832;4.080;2023-11-22T02:07:14;30.03;;;15.93;;
20283;SDS011;10301;50.832;4.080;2023-11-22T02:09:41;32.07;;;15.17;;
20283;SDS011;10301;50.832;4.080;2023-11-22T02:12:07;30.13;;;15.63;;
20283;SDS011;10301;50.832;4.080;2023-11-22T02:14:33;31.60;;;15.97;;
20283;SDS011;10301;50.832;4.080;2023-11-22T02:16:59;27.97;;;15.97;;
20283;SDS011;10301;50.832;4.080;2023-11-22T02:19:25;31.63;;;16.17;;
20283;SDS011;10301;50.832;4.080;2023-11-22T02:21:51;28.70;;;15.63;;
20283;SDS011;10301;50.832;4.080;2023-11-22T02:24:17;28.77;;;15.53;;
20283;SDS011;10301;50.832;4.080;2023-11-22T02:26:43;32.67;;;16.30;;
20283;SDS011;10301;50.832;4.080;2023-11-22T02:29:10;30.67;;;16.17;;
20283;SDS011;10301;50.832;4.080;2023-11-22T02:31:38;31.97;;;16.33;;
20283;SDS011;10301;50.832;4.080;2023-11-22T02:34:08;27.97;;;15.60;;
20283;SDS011;10301;50.832;4.080;2023-11-22T02:36:34;28.20;;;14.57;;
20283;SDS011;10301;50.832;4.080;2023-11-22T02:38:59;29.67;;;15.77;;
20283;SDS011;10301;50.832;4.080;2023-11-22T02:41:28;28.23;;;14.83;;
20283;SDS011;10301;50.832;4.080;2023-11-22T02:43:57;27.77;;;14.80;;
20283;SDS011;10301;50.832;4.080;2023-11-22T02:46:23;30.00;;;15.07;;
20283;SDS011;10301;50.832;4.080;2023-11-22T02:48:48;30.13;;;16.03;;
20283;SDS011;10301;50.832;4.080;2023-11-22T02:51:14;27.23;;;15.83;;
20283;SDS011;10301;50.832;4.080;2023-11-22T02:53:42;29.73;;;16.27;;
20283;SDS011;10301;50.832;4.080;2023-11-22T02:56:10;32.10;;;15.97;;
20283;SDS011;10301;50.832;4.080;2023-11-22T02:58:36;30.53;;;15.73;;
20283;SDS011;10301;50.832;4.080;2023-11-22T03:01:02;29.70;;;15.27;;
20283;SDS011;10301;50.832;4.080;2023-11-22T03:03:28;29.60;;;16.40;;
20283;SDS011;10301;50.832;4.080;2023-11-22T03:05:54;30.50;;;16.40;;
20283;SDS011;10301;50.832;4.080;2023-11-22T03:08:19;33.40;;;17.40;;
20283;SDS011;10301;50.832;4.080;2023-11-22T03:10:45;34.77;;;17.77;;
20283;SDS011;10301;50.832;4.080;2023-11-22T03:13:11;35.70;;;17.83;;
20283;SDS011;10301;50.832;4.080;2023-11-22T03:15:37;34.63;;;17.83;;
20283;SDS011;10301;50.832;4.080;2023-11-22T03:18:03;32.30;;;17.17;;
20283;SDS011;10301;50.832;4.080;2023-11-22T03:20:31;32.23;;;17.23;;
20283;SDS011;10301;50.832;4.080;2023-11-22T03:22:58;32.80;;;16.53;;
20283;SDS011;10301;50.832;4.080;2023-11-22T03:25:23;30.77;;;15.87;;
20283;SDS011;10301;50.832;4.080;2023-11-22T03:27:49;32.90;;;17.37;;
20283;SDS011;10301;50.832;4.080;2023-11-22T03:30:15;30.53;;;15.90;;
20283;SDS011;10301;50.832;4.080;2023-11-22T03:32:41;31.90;;;17.13;;
20283;SDS011;10301;50.832;4.080;2023-11-22T03:35:07;34.53;;;17.00;;
20283;SDS011;10301;50.832;4.080;2023-11-22T03:37:33;38.13;;;17.30;;
20283;SDS011;10301;50.832;4.080;2023-11-22T03:39:59;33.33;;;16.97;;
20283;SDS011;10301;50.832;4.080;2023-11-22T03:42:25;33.27;;;16.37;;
20283;SDS011;10301;50.832;4.080;2023-11-22T03:44:54;33.43;;;16.73;;
20283;SDS011;10301;50.832;4.080;2023-11-22T03:47:20;32.90;;;16.33;;
20283;SDS011;10301;50.832;4.080;2023-11-22T03:49:45;33.57;;;16.57;;
20283;SDS011;10301;50.832;4.080;2023-11-22T03:52:11;33.27;;;17.07;;
20283;SDS011;10301;50.832;4.080;2023-11-22T03:54:37;36.90;;;15.80;;
20283;SDS011;10301;50.832;4.080;2023-11-22T03:57:04;32.57;;;16.73;;
20283;SDS011;10301;50.832;4.080;2023-11-22T03:59:30;29.77;;;15.80;;
20283;SDS011;10301;50.832;4.080;2023-11-22T04:01:55;30.77;;;15.13;;
20283;SDS011;10301;50.832;4.080;2023-11-22T04:04:22;29.40;;;15.83;;
20283;SDS011;10301;50.832;4.080;2023-11-22T04:06:48;33.10;;;15.73;;
20283;SDS011;10301;50.832;4.080;2023-11-22T04:09:14;32.67;;;17.10;;
20283;SDS011;10301;50.832;4.080;2023-11-22T04:11:42;33.37;;;16.00;;
20283;SDS011;10301;50.832;4.080;2023-11-22T04:14:07;39.33;;;18.30;;
20283;SDS011;10301;50.832;4.080;2023-11-22T04:16:33;37.73;;;18.80;;
20283;SDS011;10301;50.832;4.080;2023-11-22T04:18:59;38.20;;;17.77;;
20283;SDS011;10301;50.832;4.080;2023-11-22T04:21:25;36.00;;;17.23;;
20283;SDS011;10301;50.832;4.080;2023-11-22T04:23:50;36.93;;;18.20;;
20283;SDS011;10301;50.832;4.080;2023-11-22T04:26:16;39.10;;;18.37;;
20283;SDS011;10301;50.832;4.080;2023-11-22T04:28:45;39.50;;;19.83;;
20283;SDS011;10301;50.832;4.080;2023-11-22T04:31:10;40.07;;;20.47;;
20283;SDS011;10301;50.832;4.080;2023-11-22T04:33:36;40.20;;;19.33;;
20283;SDS011;10301;50.832;4.080;2023-11-22T04:36:02;41.87;;;18.83;;
20283;SDS011;10301;50.832;4.080;2023-11-22T04:38:30;38.80;;;18.17;;
20283;SDS011;10301;50.832;4.080;2023-11-22T04:40:55;35.50;;;18.37;;
20283;SDS011;10301;50.832;4.080;2023-11-22T04:43:21;36.43;;;18.90;;
20283;SDS011;10301;50.832;4.080;2023-11-22T04:45:48;39.83;;;18.57;;
20283;SDS011;10301;50.832;4.080;2023-11-22T04:48:15;43.80;;;20.63;;
20283;SDS011;10301;50.832;4.080;2023-11-22T04:50:41;38.20;;;19.40;;
20283;SDS011;10301;50.832;4.080;2023-11-22T04:53:10;39.90;;;20.20;;
20283;SDS011;10301;50.832;4.080;2023-11-22T04:55:36;42.43;;;20.53;;
20283;SDS011;10301;50.832;4.080;2023-11-22T04:58:02;37.47;;;19.10;;
20283;SDS011;10301;50.832;4.080;2023-11-22T05:00:28;39.43;;;20.10;;
20283;SDS011;10301;50.832;4.080;2023-11-22T05:02:53;43.20;;;20.10;;
20283;SDS011;10301;50.832;4.080;2023-11-22T05:05:19;42.63;;;20.70;;
20283;SDS011;10301;50.832;4.080;2023-11-22T05:07:46;36.13;;;19.70;;
20283;SDS011;10301;50.832;4.080;2023-11-22T05:10:12;37.43;;;19.00;;
20283;SDS011;10301;50.832;4.080;2023-11-22T05:12:38;42.70;;;19.83;;
20283;SDS011;10301;50.832;4.080;2023-11-22T05:15:04;39.83;;;20.40;;
20283;SDS011;10301;50.832;4.080;2023-11-22T05:17:30;36.00;;;18.47;;
20283;SDS011;10301;50.832;4.080;2023-11-22T05:19:58;41.57;;;20.63;;
20283;SDS011;10301;50.832;4.080;2023-11-22T05:22:24;48.60;;;21.47;;
20283;SDS011;10301;50.832;4.080;2023-11-22T05:24:49;44.57;;;22.77;;
20283;SDS011;10301;50.832;4.080;2023-11-22T05:27:15;48.90;;;23.40;;
20283;SDS011;10301;50.832;4.080;2023-11-22T05:29:41;54.10;;;25.03;;
20283;SDS011;10301;50.832;4.080;2023-11-22T05:32:07;56.97;;;26.07;;
20283;SDS011;10301;50.832;4.080;2023-11-22T05:34:33;50.90;;;24.60;;
20283;SDS011;10301;50.832;4.080;2023-11-22T05:36:59;51.87;;;25.47;;
20283;SDS011;10301;50.832;4.080;2023-11-22T05:39:24;53.40;;;24.80;;
20283;SDS011;10301;50.832;4.080;2023-11-22T05:41:50;52.53;;;23.97;;
20283;SDS011;10301;50.832;4.080;2023-11-22T05:44:17;53.17;;;25.80;;
20283;SDS011;10301;50.832;4.080;2023-11-22T05:46:42;57.87;;;26.23;;
20283;SDS011;10301;50.832;4.080;2023-11-22T05:49:08;59.63;;;25.63;;
20283;SDS011;10301;50.832;4.080;2023-11-22T05:51:35;61.97;;;27.20;;
20283;SDS011;10301;50.832;4.080;2023-11-22T05:54:02;61.70;;;27.17;;
20283;SDS011;10301;50.832;4.080;2023-11-22T05:56:28;63.80;;;26.90;;
20283;SDS011;10301;50.832;4.080;2023-11-22T05:58:54;53.83;;;25.63;;
20283;SDS011;10301;50.832;4.080;2023-11-22T06:01:19;61.13;;;27.83;;
20283;SDS011;10301;50.832;4.080;2023-11-22T06:03:45;64.70;;;26.90;;
20283;SDS011;10301;50.832;4.080;2023-11-22T06:06:11;60.67;;;27.87;;
20283;SDS011;10301;50.832;4.080;2023-11-22T06:08:38;60.47;;;26.63;;
20283;SDS011;10301;50.832;4.080;2023-11-22T06:11:04;61.30;;;27.27;;
20283;SDS011;10301;50.832;4.080;2023-11-22T06:13:30;56.83;;;25.93;;
20283;SDS011;10301;50.832;4.080;2023-11-22T06:15:56;63.47;;;28.40;;
20283;SDS011;10301;50.832;4.080;2023-11-22T06:18:22;68.03;;;29.40;;
20283;SDS011;10301;50.832;4.080;2023-11-22T06:20:54;61.77;;;28.30;;
20283;SDS011;10301;50.832;4.080;2023-11-22T06:23:20;68.57;;;29.07;;
20283;SDS011;10301;50.832;4.080;2023-11-22T06:25:46;55.70;;;25.93;;
20283;SDS011;10301;50.832;4.080;2023-11-22T06:28:12;58.60;;;27.23;;
20283;SDS011;10301;50.832;4.080;2023-11-22T06:30:38;54.47;;;24.77;;
20283;SDS011;10301;50.832;4.080;2023-11-22T06:33:04;61.07;;;26.03;;
20283;SDS011;10301;50.832;4.080;2023-11-22T06:35:30;55.57;;;26.17;;
20283;SDS011;10301;50.832;4.080;2023-11-22T06:37:55;50.30;;;23.13;;
20283;SDS011;10301;50.832;4.080;2023-11-22T06:40:21;49.43;;;24.83;;
20283;SDS011;10301;50.832;4.080;2023-11-22T06:42:47;52.57;;;24.33;;
20283;SDS011;10301;50.832;4.080;2023-11-22T06:45:13;57.97;;;25.43;;
20283;SDS011;10301;50.832;4.080;2023-11-22T06:47:40;52.93;;;24.40;;
20283;SDS011;10301;50.832;4.080;2023-11-22T06:50:06;55.53;;;25.57;;
20283;SDS011;10301;50.832;4.080;2023-11-22T06:52:37;54.07;;;25.37;;
20283;SDS011;10301;50.832;4.080;2023-11-22T06:55:03;50.73;;;24.17;;
20283;SDS011;10301;50.832;4.080;2023-11-22T06:57:30;52.53;;;22.63;;
20283;SDS011;10301;50.832;4.080;2023-11-22T06:59:56;48.07;;;23.20;;
20283;SDS011;10301;50.832;4.080;2023-11-22T07:02:22;52.93;;;22.47;;
20283;SDS011;10301;50.832;4.080;2023-11-22T07:04:48;54.77;;;24.17;;
20283;SDS011;10301;50.832;4.080;2023-11-22T07:07:14;53.27;;;23.63;;
20283;SDS011;10301;50.832;4.080;2023-11-22T07:09:43;51.80;;;23.83;;
20283;SDS011;10301;50.832;4.080;2023-11-22T07:12:09;49.53;;;22.43;;
20283;SDS011;10301;50.832;4.080;2023-11-22T07:14:35;50.17;;;23.90;;
20283;SDS011;10301;50.832;4.080;2023-11-22T07:17:01;51.80;;;24.80;;
20283;SDS011;10301;50.832;4.080;2023-11-22T07:19:28;52.27;;;24.57;;
20283;SDS011;10301;50.832;4.080;2023-11-22T07:21:54;53.17;;;24.93;;
20283;SDS011;10301;50.832;4.080;2023-11-22T07:24:20;60.20;;;26.83;;
20283;SDS011;10301;50.832;4.080;2023-11-22T07:26:46;65.93;;;25.90;;
20283;SDS011;10301;50.832;4.080;2023-11-22T07:29:12;62.43;;;25.53;;
20283;SDS011;10301;50.832;4.080;2023-11-22T07:31:38;58.27;;;25.77;;
20283;SDS011;10301;50.832;4.080;2023-11-22T07:34:04;55.60;;;24.83;;
20283;SDS011;10301;50.832;4.080;2023-11-22T07:36:31;54.73;;;24.83;;
20283;SDS011;10301;50.832;4.080;2023-11-22T07:38:56;57.63;;;24.30;;
20283;SDS011;10301;50.832;4.080;2023-11-22T07:41:22;59.00;;;25.33;;
20283;SDS011;10301;50.832;4.080;2023-11-22T07:43:48;61.37;;;25.37;;
20283;SDS011;10301;50.832;4.080;2023-11-22T07:46:14;54.90;;;23.50;;
20283;SDS011;10301;50.832;4.080;2023-11-22T07:48:42;52.43;;;24.43;;
20283;SDS011;10301;50.832;4.080;2023-11-22T07:51:08;50.57;;;22.77;;
20283;SDS011;10301;50.832;4.080;2023-11-22T07:53:34;59.43;;;26.13;;
20283;SDS011;10301;50.832;4.080;2023-11-22T07:56:03;54.63;;;24.70;;
20283;SDS011;10301;50.832;4.080;2023-11-22T07:58:29;55.63;;;24.30;;
20283;SDS011;10301;50.832;4.080;2023-11-22T08:00:59;54.60;;;24.53;;
20283;SDS011;10301;50.832;4.080;2023-11-22T08:03:25;53.53;;;25.07;;
20283;SDS011;10301;50.832;4.080;2023-11-22T08:05:51;58.20;;;26.57;;
20283;SDS011;10301;50.832;4.080;2023-11-22T08:08:20;55.00;;;24.97;;
20283;SDS011;10301;50.832;4.080;2023-11-22T08:10:49;56.53;;;25.50;;
20283;SDS011;10301;50.832;4.080;2023-11-22T08:13:18;57.90;;;25.27;;
20283;SDS011;10301;50.832;4.080;2023-11-22T08:15:50;57.27;;;24.80;;
20283;SDS011;10301;50.832;4.080;2023-11-22T08:18:16;53.27;;;23.37;;
20283;SDS011;10301;50.832;4.080;2023-11-22T08:20:42;54.30;;;25.70;;
20283;SDS011;10301;50.832;4.080;2023-11-22T08:23:08;47.70;;;22.80;;
20283;SDS011;10301;50.832;4.080;2023-11-22T08:25:35;51.27;;;24.47;;
20283;SDS011;10301;50.832;4.080;2023-11-22T08:28:03;50.90;;;25.20;;
20283;SDS011;10301;50.832;4.080;2023-11-22T08:30:29;58.07;;;26.03;;
20283;SDS011;10301;50.832;4.080;2023-11-22T08:32:58;55.47;;;25.87;;
20283;SDS011;10301;50.832;4.080;2023-11-22T08:35:23;56.90;;;25.10;;
20283;SDS011;10301;50.832;4.080;2023-11-22T08:37:49;57.93;;;26.00;;
20283;SDS011;10301;50.832;4.080;2023-11-22T08:40:16;53.83;;;24.37;;
20283;SDS011;10301;50.832;4.080;2023-11-22T08:42:45;53.67;;;24.97;;
20283;SDS011;10301;50.832;4.080;2023-11-22T08:45:11;53.67;;;25.20;;
20283;SDS011;10301;50.832;4.080;2023-11-22T08:47:38;50.03;;;24.27;;
20283;SDS011;10301;50.832;4.080;2023-11-22T08:50:06;49.73;;;23.63;;
20283;SDS011;10301;50.832;4.080;2023-11-22T08:52:33;55.53;;;25.10;;
20283;SDS011;10301;50.832;4.080;2023-11-22T08:54:59;61.33;;;26.53;;
20283;SDS011;10301;50.832;4.080;2023-11-22T08:57:26;58.33;;;27.13;;
20283;SDS011;10301;50.832;4.080;2023-11-22T08:59:52;53.63;;;25.40;;
20283;SDS011;10301;50.832;4.080;2023-11-22T09:02:19;61.87;;;27.90;;
20283;SDS011;10301;50.832;4.080;2023-11-22T09:04:47;58.97;;;28.83;;
20283;SDS011;10301;50.832;4.080;2023-11-22T09:07:13;59.17;;;29.03;;
20283;SDS011;10301;50.832;4.080;2023-11-22T09:09:40;58.77;;;26.27;;
20283;SDS011;10301;50.832;4.080;2023-11-22T09:12:06;55.13;;;27.43;;
20283;SDS011;10301;50.832;4.080;2023-11-22T09:14:38;57.23;;;26.37;;
20283;SDS011;10301;50.832;4.080;2023-11-22T09:17:09;53.70;;;25.60;;
20283;SDS011;10301;50.832;4.080;2023-11-22T09:19:35;53.90;;;26.50;;
20283;SDS011;10301;50.832;4.080;2023-11-22T09:22:01;56.27;;;25.50;;
20283;SDS011;10301;50.832;4.080;2023-11-22T09:24:27;48.13;;;24.23;;
20283;SDS011;10301;50.832;4.080;2023-11-22T09:26:52;53.57;;;26.77;;
20283;SDS011;10301;50.832;4.080;2023-11-22T09:29:18;49.60;;;23.70;;
20283;SDS011;10301;50.832;4.080;2023-11-22T09:31:44;46.57;;;22.63;;
20283;SDS011;10301;50.832;4.080;2023-11-22T09:34:12;49.33;;;23.57;;
20283;SDS011;10301;50.832;4.080;2023-11-22T09:36:38;49.30;;;23.87;;
20283;SDS011;10301;50.832;4.080;2023-11-22T09:39:04;45.83;;;22.43;;
20283;SDS011;10301;50.832;4.080;2023-11-22T09:41:34;43.80;;;23.23;;
20283;SDS011;10301;50.832;4.080;2023-11-22T09:44:00;42.17;;;23.17;;
20283;SDS011;10301;50.832;4.080;2023-11-22T09:46:26;45.17;;;22.23;;
20283;SDS011;10301;50.832;4.080;2023-11-22T09:48:52;44.67;;;22.40;;
20283;SDS011;10301;50.832;4.080;2023-11-22T09:51:23;46.30;;;23.77;;
20283;SDS011;10301;50.832;4.080;2023-11-22T09:53:55;46.90;;;23.90;;
20283;SDS011;10301;50.832;4.080;2023-11-22T09:56:22;45.70;;;23.03;;
20283;SDS011;10301;50.832;4.080;2023-11-22T09:58:51;42.83;;;22.63;;
20283;SDS011;10301;50.832;4.080;2023-11-22T10:01:22;45.00;;;22.20;;
20283;SDS011;10301;50.832;4.080;2023-11-22T10:03:48;45.73;;;23.60;;
20283;SDS011;10301;50.832;4.080;2023-11-22T10:06:15;45.43;;;24.07;;
20283;SDS011;10301;50.832;4.080;2023-11-22T10:08:42;43.03;;;22.57;;
20283;SDS011;10301;50.832;4.080;2023-11-22T10:11:08;45.90;;;23.20;;
20283;SDS011;10301;50.832;4.080;2023-11-22T10:13:34;45.33;;;23.37;;
20283;SDS011;10301;50.832;4.080;2023-11-22T10:16:12;42.77;;;23.23;;
20283;SDS011;10301;50.832;4.080;2023-11-22T10:18:44;38.83;;;21.03;;
20283;SDS011;10301;50.832;4.080;2023-11-22T10:21:27;42.10;;;22.50;;
20283;SDS011;10301;50.832;4.080;2023-11-22T10:24:02;48.53;;;26.83;;
20283;SDS011;10301;50.832;4.080;2023-11-22T10:26:28;39.87;;;22.50;;
20283;SDS011;10301;50.832;4.080;2023-11-22T10:28:54;41.77;;;21.60;;
20283;SDS011;10301;50.832;4.080;2023-11-22T10:31:21;38.23;;;21.93;;
20283;SDS011;10301;50.832;4.080;2023-11-22T10:33:48;44.20;;;21.33;;
20283;SDS011;10301;50.832;4.080;2023-11-22T10:36:14;38.20;;;19.67;;
20283;SDS011;10301;50.832;4.080;2023-11-22T10:38:41;36.13;;;19.57;;
20283;SDS011;10301;50.832;4.080;2023-11-22T10:41:11;34.67;;;18.93;;
20283;SDS011;10301;50.832;4.080;2023-11-22T10:43:38;33.27;;;19.10;;
20283;SDS011;10301;50.832;4.080;2023-11-22T10:46:07;36.57;;;19.53;;
20283;SDS011;10301;50.832;4.080;2023-11-22T10:48:36;36.83;;;19.60;;
20283;SDS011;10301;50.832;4.080;2023-11-22T10:51:02;36.03;;;19.53;;
20283;SDS011;10301;50.832;4.080;2023-11-22T10:53:31;34.37;;;19.17;;
20283;SDS011;10301;50.832;4.080;2023-11-22T10:56:03;35.63;;;19.10;;
20283;SDS011;10301;50.832;4.080;2023-11-22T10:58:46;33.00;;;17.90;;
20283;SDS011;10301;50.832;4.080;2023-11-22T11:01:16;33.17;;;17.83;;
20283;SDS011;10301;50.832;4.080;2023-11-22T11:06:22;34.43;;;18.23;;
20283;SDS011;10301;50.832;4.080;2023-11-22T11:08:53;31.30;;;17.50;;
20283;SDS011;10301;50.832;4.080;2023-11-22T11:11:24;34.97;;;19.10;;
20283;SDS011;10301;50.832;4.080;2023-11-22T11:13:52;31.50;;;17.97;;
20283;SDS011;10301;50.832;4.080;2023-11-22T11:16:18;31.87;;;18.23;;
20283;SDS011;10301;50.832;4.080;2023-11-22T11:18:45;30.53;;;17.33;;
20283;SDS011;10301;50.832;4.080;2023-11-22T11:21:11;33.77;;;18.23;;
20283;SDS011;10301;50.832;4.080;2023-11-22T11:23:38;32.60;;;18.07;;
20283;SDS011;10301;50.832;4.080;2023-11-22T11:26:14;35.00;;;18.77;;
20283;SDS011;10301;50.832;4.080;2023-11-22T11:28:42;34.73;;;17.83;;
20283;SDS011;10301;50.832;4.080;2023-11-22T11:31:09;28.00;;;17.40;;
20283;SDS011;10301;50.832;4.080;2023-11-22T11:33:52;28.53;;;16.70;;
20283;SDS011;10301;50.832;4.080;2023-11-22T11:36:27;31.97;;;17.87;;
20283;SDS011;10301;50.832;4.080;2023-11-22T11:38:56;29.60;;;17.23;;
20283;SDS011;10301;50.832;4.080;2023-11-22T11:41:28;30.40;;;17.87;;
20283;SDS011;10301;50.832;4.080;2023-11-22T11:43:58;29.57;;;17.10;;
20283;SDS011;10301;50.832;4.080;2023-11-22T11:46:28;29.63;;;17.33;;
20283;SDS011;10301;50.832;4.080;2023-11-22T11:48:54;27.53;;;16.83;;
20283;SDS011;10301;50.832;4.080;2023-11-22T11:51:27;28.30;;;16.20;;
20283;SDS011;10301;50.832;4.080;2023-11-22T11:53:53;31.00;;;17.83;;
20283;SDS011;10301;50.832;4.080;2023-11-22T11:56:20;36.30;;;18.67;;
20283;SDS011;10301;50.832;4.080;2023-11-22T11:58:47;29.33;;;17.60;;
20283;SDS011;10301;50.832;4.080;2023-11-22T12:01:14;28.10;;;17.63;;
20283;SDS011;10301;50.832;4.080;2023-11-22T12:03:41;30.40;;;17.50;;
20283;SDS011;10301;50.832;4.080;2023-11-22T12:06:11;31.60;;;20.10;;
20283;SDS011;10301;50.832;4.080;2023-11-22T12:08:40;30.80;;;20.43;;
20283;SDS011;10301;50.832;4.080;2023-11-22T12:11:06;32.90;;;18.17;;
20283;SDS011;10301;50.832;4.080;2023-11-22T12:13:33;30.20;;;16.37;;
20283;SDS011;10301;50.832;4.080;2023-11-22T12:16:00;34.43;;;19.60;;
20283;SDS011;10301;50.832;4.080;2023-11-22T12:18:38;30.77;;;18.67;;
20283;SDS011;10301;50.832;4.080;2023-11-22T12:21:11;31.80;;;18.17;;
20283;SDS011;10301;50.832;4.080;2023-11-22T12:23:40;32.87;;;18.60;;
20283;SDS011;10301;50.832;4.080;2023-11-22T12:26:13;31.57;;;17.53;;
20283;SDS011;10301;50.832;4.080;2023-11-22T12:28:48;29.50;;;17.97;;
20283;SDS011;10301;50.832;4.080;2023-11-22T12:31:15;29.00;;;17.10;;
20283;SDS011;10301;50.832;4.080;2023-11-22T12:33:41;31.10;;;16.93;;
20283;SDS011;10301;50.832;4.080;2023-11-22T12:36:08;31.80;;;17.63;;
20283;SDS011;10301;50.832;4.080;2023-11-22T12:38:35;29.07;;;17.13;;
20283;SDS011;10301;50.832;4.080;2023-11-22T12:41:05;30.87;;;17.60;;
20283;SDS011;10301;50.832;4.080;2023-11-22T12:43:31;29.97;;;17.47;;
20283;SDS011;10301;50.832;4.080;2023-11-22T12:46:01;29.43;;;17.63;;
20283;SDS011;10301;50.832;4.080;2023-11-22T12:48:28;27.73;;;16.60;;
20283;SDS011;10301;50.832;4.080;2023-11-22T12:50:58;30.53;;;16.67;;
20283;SDS011;10301;50.832;4.080;2023-11-22T12:53:24;28.43;;;17.07;;
20283;SDS011;10301;50.832;4.080;2023-11-22T12:55:53;29.33;;;16.73;;
20283;SDS011;10301;50.832;4.080;2023-11-22T12:58:19;29.23;;;17.97;;
20283;SDS011;10301;50.832;4.080;2023-11-22T13:00:50;31.97;;;17.80;;
20283;SDS011;10301;50.832;4.080;2023-11-22T13:03:22;29.07;;;17.40;;
20283;SDS011;10301;50.832;4.080;2023-11-22T13:05:49;29.27;;;17.70;;
20283;SDS011;10301;50.832;4.080;2023-11-22T13:08:17;29.73;;;17.13;;
20283;SDS011;10301;50.832;4.080;2023-11-22T13:10:43;32.63;;;18.00;;
20283;SDS011;10301;50.832;4.080;2023-11-22T13:13:11;31.90;;;17.67;;
20283;SDS011;10301;50.832;4.080;2023-11-22T13:15:37;30.87;;;17.57;;
20283;SDS011;10301;50.832;4.080;2023-11-22T13:18:05;32.77;;;19.07;;
20283;SDS011;10301;50.832;4.080;2023-11-22T13:20:31;29.87;;;18.83;;
20283;SDS011;10301;50.832;4.080;2023-11-22T13:22:57;30.50;;;19.27;;
20283;SDS011;10301;50.832;4.080;2023-11-22T13:25:25;34.47;;;20.13;;
20283;SDS011;10301;50.832;4.080;2023-11-22T13:27:51;30.50;;;18.40;;
20283;SDS011;10301;50.832;4.080;2023-11-22T13:30:18;28.80;;;17.10;;
20283;SDS011;10301;50.832;4.080;2023-11-22T13:32:47;31.67;;;18.17;;
20283;SDS011;10301;50.832;4.080;2023-11-22T13:35:14;33.77;;;18.80;;
20283;SDS011;10301;50.832;4.080;2023-11-22T13:37:42;29.03;;;17.10;;
20283;SDS011;10301;50.832;4.080;2023-11-22T13:40:11;29.83;;;20.53;;
20283;SDS011;10301;50.832;4.080;2023-11-22T13:42:43;33.07;;;17.40;;
20283;SDS011;10301;50.832;4.080;2023-11-22T13:45:13;29.60;;;18.37;;
20283;SDS011;10301;50.832;4.080;2023-11-22T13:47:49;30.83;;;17.63;;
20283;SDS011;10301;50.832;4.080;2023-11-22T13:50:19;30.57;;;17.70;;
20283;SDS011;10301;50.832;4.080;2023-11-22T13:52:47;29.80;;;17.17;;
20283;SDS011;10301;50.832;4.080;2023-11-22T13:55:13;30.73;;;18.77;;
20283;SDS011;10301;50.832;4.080;2023-11-22T13:57:41;32.17;;;17.70;;
20283;SDS011;10301;50.832;4.080;2023-11-22T14:00:08;33.83;;;18.00;;
20283;SDS011;10301;50.832;4.080;2023-11-22T14:02:37;28.60;;;16.43;;
20283;SDS011;10301;50.832;4.080;2023-11-22T14:05:03;32.77;;;17.70;;
20283;SDS011;10301;50.832;4.080;2023-11-22T14:07:32;29.57;;;17.20;;
20283;SDS011;10301;50.832;4.080;2023-11-22T14:10:04;27.13;;;16.77;;
20283;SDS011;10301;50.832;4.080;2023-11-22T14:12:31;34.33;;;18.87;;
20283;SDS011;10301;50.832;4.080;2023-11-22T14:14:58;30.53;;;17.43;;
20283;SDS011;10301;50.832;4.080;2023-11-22T14:17:24;33.50;;;17.93;;
20283;SDS011;10301;50.832;4.080;2023-11-22T14:19:51;30.17;;;16.90;;
20283;SDS011;10301;50.832;4.080;2023-11-22T14:22:17;27.20;;;16.87;;